Temp     Hi    Low   Out    Dew  Wind  Wind   Wind    Hi    Hi   Wind   Heat    THW   THSW                Rain  Solar   Solar Hi Solar   UV    UV    Hi     Heat    Cool    In     In    In     In           Wind  Wind    ISS   Arc.
  Date    Time     Out   Temp   Temp   Hum    Pt. Speed   Dir    Run Speed   Dir  Chill  Index  Index  Index   Bar    Rain  Rate   Rad.  Energy    Rad.  Index  Dose   UV     D-D     D-D    Temp   Hum    Dew   Heat     ET   Samp   Tx   Recept  Int.
---------------------------------------------------------------------------------------------------------------------------------------------------------------------------------------------------------------------------------------------------------
28/02/24   0.30   14.3   14.3   14.0    82   11.3   6.4   SSE   3.22  19.3   SSE   14.3   14.2   14.2   12.9  1008.6  0.00   0.0     0     0.00      0     0.0  0.00   0.0   0.083   0.000   14.2    79   10.6   14.1    0.00   695    1    100.0   30 
28/02/24   1.00   14.2   14.5   14.2    81   11.0   8.0   SSE   4.02  20.9   SSE   13.9   14.1   13.8   12.5  1008.7  0.00   0.0     0     0.00      0     0.0  0.00   0.0   0.086   0.000   14.3    80   10.9   14.2    0.00   686    1    100.0   30 
28/02/24   1.30   13.6   14.3   13.6    79   10.0  11.3   SSE   5.63  27.4    SE   12.7   13.3   12.5   11.1  1009.1  0.00   0.0     0     0.00      0     0.0  0.00   0.0   0.100   0.000   14.3    80   10.9   14.2    0.00   698    1    100.0   30 
28/02/24   2.00   14.1   14.2   13.6    80   10.7   8.0   SSE   4.02  24.1   SSE   13.8   13.9   13.7   12.3  1009.3  0.00   0.0     0     0.00      0     0.0  0.00   0.0   0.088   0.000   14.3    79   10.7   14.1    0.03   688    1    100.0   30 
28/02/24   2.30   13.9   14.2   13.9    78   10.2   4.8     S   2.41  14.5   SSE   13.9   13.7   13.7   12.3  1009.2  0.00   0.0     0     0.00      0     0.0  0.00   0.0   0.091   0.000   14.3    79   10.7   14.1    0.00   699    1    100.0   30 
28/02/24   3.00   13.8   13.9   13.7    79   10.2   4.8     E   2.41  14.5     E   13.8   13.6   13.6   12.2  1009.2  0.00   0.0     0     0.00      0     0.0  0.00   0.0   0.095   0.000   14.2    79   10.6   14.1    0.00   694    1    100.0   30 
28/02/24   3.30   12.9   13.8   12.9    82    9.9   3.2     E   1.61  19.3    SE   12.9   12.8   12.8   11.4  1009.5  0.25   0.0     0     0.00      0     0.0  0.00   0.0   0.112   0.000   14.2    79   10.6   14.1    0.00   695    1    100.0   30 
28/02/24   4.00   12.4   12.9   12.4    83    9.6   1.6    NE   0.80   6.4   ENE   12.4   12.3   12.3   10.9  1009.6  0.51   3.6     0     0.00      0     0.0  0.00   0.0   0.123   0.000   14.3    79   10.7   14.1    0.00   699    1    100.0   30 
28/02/24   4.30   12.1   12.4   11.9    83    9.3   3.2     N   1.61  12.9   ESE   12.1   12.0   12.0   10.6  1009.7  0.00   0.0     0     0.00      0     0.0  0.00   0.0   0.130   0.000   14.2    79   10.6   14.1    0.00   691    1    100.0   30 
28/02/24   5.00   11.9   12.1   11.8    84    9.3   4.8   NNW   2.41   9.7   NNE   11.9   11.8   11.8   10.4  1009.7  0.00   0.0     0     0.00      0     0.0  0.00   0.0   0.134   0.000   14.2    78   10.4   14.1    0.00   702    1    100.0   30 
28/02/24   5.30   12.2   12.2   11.8    85    9.8   3.2   NNW   1.61  12.9     N   12.2   12.2   12.2   10.8  1010.0  0.25   0.0     0     0.00      0     0.0  0.00   0.0   0.127   0.000   14.2    78   10.4   14.0    0.00   690    1    100.0   30 
28/02/24   6.00   12.1   12.3   12.1    86    9.8   0.0   NNE   0.00   6.4   NNE   12.1   12.1   12.1   10.7  1010.2  2.54  23.6     0     0.00      0     0.0  0.00   0.0   0.130   0.000   14.2    78   10.4   14.0    0.00   700    1    100.0   30 
28/02/24   6.30   11.6   12.2   11.6    86    9.3   4.8   ESE   2.41  25.7     E   11.6   11.6   11.6   10.2  1010.7  1.78   5.8     0     0.00      0     0.0  0.00   0.0   0.140   0.000   14.2    78   10.4   14.0    0.00   691    1    100.0   30 
28/02/24   7.00   11.7   11.8   11.6    86    9.5   3.2    NE   1.61  16.1     E   11.7   11.7   11.7   10.3  1011.0  1.27   3.6     0     0.00      0     0.0  0.00   0.0   0.138   0.000   14.2    78   10.4   14.0    0.00   702    1    100.0   30 
28/02/24   7.30   11.6   11.7   11.4    86    9.3   3.2   NNW   1.61  11.3    NE   11.6   11.6   11.6   10.1  1011.2  1.02   2.5     0     0.00      0     0.0  0.00   0.0   0.141   0.000   14.2    78   10.4   14.0    0.00   692    1    100.0   30 
28/02/24   8.00   12.1   12.3   11.6    86    9.8  11.3   ENE   5.63  27.4    NE   11.0   12.1   10.9    9.6  1011.6  0.76   2.8     7     0.30     12     0.0  0.00   0.0   0.130   0.000   14.1    78   10.3   13.9    0.00   698    1    100.0   30 
28/02/24   8.30   11.4   12.2   11.4    85    9.0   6.4     N   3.22  17.7     N   11.1   11.4   11.0   10.2  1011.4  0.76   2.8    13     0.56     23     0.0  0.00   0.0   0.144   0.000   14.1    78   10.3   13.9    0.00   696    1    100.0   30 
28/02/24   9.00   11.7   11.7   11.4    86    9.5   4.8     N   2.41   9.7     N   11.7   11.7   11.7   11.1  1011.6  0.25   1.5    22     0.95     33     0.0  0.00   0.0   0.138   0.000   14.1    77   10.1   13.9    0.03   699    1    100.0   30 
28/02/24   9.30   12.2   12.2   11.7    86    9.9  12.9     N   6.44  27.4    NW   10.7   12.2   10.7   10.3  1011.0  0.25   0.0    35     1.51     77     0.0  0.00   0.0   0.127   0.000   14.1    78   10.3   13.9    0.00   695    1    100.0   30 
28/02/24  10.00   12.4   12.4   12.2    86   10.2  16.1     N   8.05  27.4    NE   10.2   12.4   10.2   10.3  1011.4  0.00   0.0    60     2.58     83     0.0  0.00   0.0   0.123   0.000   14.1    78   10.3   13.9    0.05   696    1    100.0   30 
28/02/24  10.30   12.8   12.8   12.4    85   10.4  12.9     N   6.44  27.4     N   11.4   12.8   11.4   11.2  1012.4  0.00   0.0    46     1.98     70     0.0  0.00   0.0   0.115   0.000   14.1    78   10.3   13.9    0.00   700    1    100.0   30 
28/02/24  11.00   13.0   13.0   12.8    86   10.7   8.0     N   4.02  25.7   NNE   12.6   12.9   12.5   13.4  1012.2  1.27  15.2   105     4.52    225     0.0  0.00   0.0   0.111   0.000   14.2    78   10.4   14.0    0.05   694    1    100.0   30 
28/02/24  11.30   13.8   13.8   13.0    86   11.5   8.0     N   4.02  17.7     N   13.5   13.8   13.4   17.9  1011.9  0.00   0.0   331    14.23    422     0.0  0.00   0.0   0.094   0.000   14.2    79   10.6   14.1    0.00   701    1    100.0   30 
28/02/24  12.00   14.3   14.3   13.8    83   11.4   8.0   NNE   4.02  16.1    NE   14.0   14.2   13.9   17.2  1012.2  0.00   0.0   255    10.97    510     0.0  0.00   0.0   0.084   0.000   14.3    79   10.7   14.2    0.18   695    1    100.0   30 
28/02/24  12.30   14.3   14.4   14.2    82   11.2   9.7     N   4.83  20.9   NNE   13.8   14.2   13.7   15.4  1012.0  0.00   0.0   152     6.54    251     0.0  0.00   0.0   0.084   0.000   14.3    79   10.7   14.2    0.00   696    1    100.0   30 
28/02/24  13.00   15.5   15.6   14.3    79   11.9   9.7   NNE   4.83  22.5   NNE   15.3   15.4   15.2   20.6  1011.8  0.00   0.0   425    18.28    782     0.0  0.00   0.0   0.059   0.000   14.5    79   10.9   14.3    0.20   700    1    100.0   30 
28/02/24  13.30   16.6   16.6   15.5    75   12.1  14.5     N   7.24  22.5   NNE   15.4   16.4   15.3   22.5  1011.6  0.00   0.0   596    25.63    677     0.0  0.00   0.0   0.037   0.000   14.8    79   11.2   14.6    0.00   694    1    100.0   30 
28/02/24  14.00   16.8   16.8   16.6    72   11.7  11.3     N   5.63  20.9     N   16.6   16.6   16.4   21.4  1011.4  0.00   0.0   376    16.17    589     0.0  0.00   0.0   0.032   0.000   14.9    78   11.1   14.7    0.33   695    1    100.0   30 
28/02/24  14.30   16.9   17.1   16.8    71   11.6  14.5   NNE   7.24  24.1    NE   15.9   16.8   15.7   23.4  1011.2  0.00   0.0   540    23.22    645     0.0  0.00   0.0   0.029   0.000   15.2    78   11.4   15.1    0.00   700    1    100.0   30 
28/02/24  15.00   16.9   17.1   16.8    71   11.6  12.9     N   6.44  22.5     N   16.4   16.8   16.2   23.1  1011.2  0.00   0.0   427    18.36    475     0.0  0.00   0.0   0.029   0.000   15.4    77   11.4   15.3    0.33   694    1    100.0   30 
28/02/24  15.30   17.1   17.1   16.9    72   12.0  14.5   NNE   7.24  27.4    NE   16.0   16.9   15.8   21.8  1010.7  0.00   0.0   355    15.27    441     0.0  0.00   0.0   0.027   0.000   15.5    76   11.3   15.3    0.00   687    1    100.0   30 
28/02/24  16.00   17.1   17.3   17.1    72   12.0  16.1     N   8.05  29.0   NNW   15.7   16.9   15.6   19.5  1010.4  0.00   0.0   238    10.24    285     0.0  0.00   0.0   0.025   0.000   15.4    76   11.2   15.2    0.23   696    1    100.0   30 
28/02/24  16.30   16.8   17.1   16.8    74   12.2  16.1     N   8.05  32.2     N   15.4   16.7   15.3   16.1  1010.2  0.00   0.0   209     8.99    234     0.0  0.00   0.0   0.031   0.000   15.4    77   11.4   15.3    0.00   698    1    100.0   30 
28/02/24  17.00   16.8   17.0   16.8    73   12.0  16.1     N   8.05  30.6     N   15.4   16.7   15.2   15.3  1010.0  0.00   0.0   140     6.02    165     0.0  0.00   0.0   0.031   0.000   15.3    77   11.3   15.2    0.15   691    1    100.0   30 
28/02/24  17.30   16.7   16.8   16.7    74   12.1  16.1     N   8.05  27.4     N   15.2   16.6   15.1   14.4  1010.0  0.00   0.0    67     2.88    107     0.0  0.00   0.0   0.034   0.000   15.2    77   11.2   15.1    0.00   696    1    100.0   30 
28/02/24  18.00   16.7   16.8   16.7    72   11.6  12.9     N   6.44  29.0     N   16.1   16.5   15.9   14.6  1010.1  0.00   0.0    25     1.08     46     0.0  0.00   0.0   0.034   0.000   15.1    78   11.3   14.9    0.05   697    1    100.0   30 
28/02/24  18.30   16.6   16.9   16.6    73   11.7  14.5     N   7.24  27.4    NW   15.4   16.4   15.3   13.8  1010.0  0.00   0.0     0     0.00      5     0.0  0.00   0.0   0.037   0.000   15.1    78   11.2   14.9    0.00   689    1    100.0   30 
28/02/24  19.00   16.8   17.1   16.6    69   11.1  17.7     N   8.85  32.2     N   14.9   16.5   14.6   13.2  1010.2  0.00   0.0     0     0.00      0     0.0  0.00   0.0   0.032   0.000   15.0    77   11.0   14.8    0.05   698    1    100.0   30 
28/02/24  19.30   16.2   16.8   16.2    72   11.1  16.1     N   8.05  30.6     N   14.6   15.9   14.3   12.8  1010.2  0.00   0.0     0     0.00      0     0.0  0.00   0.0   0.045   0.000   14.9    77   10.9   14.7    0.00   696    1    100.0   30 
28/02/24  20.00   16.4   16.4   16.1    67   10.2  14.5   NNE   7.24  25.7   NNE   15.3   16.0   14.9   13.3  1010.5  0.00   0.0     0     0.00      0     0.0  0.00   0.0   0.041   0.000   14.9    77   10.9   14.7    0.05   694    1    100.0   30 
28/02/24  20.30   16.2   16.4   15.9    68   10.3  11.3   NNE   5.63  22.5   NNE   15.8   15.8   15.4   13.7  1010.5  0.00   0.0     0     0.00      0     0.0  0.00   0.0   0.045   0.000   14.9    76   10.7   14.7    0.00   697    1    100.0   30 
28/02/24  21.00   15.8   16.2   15.6    68    9.9  12.9   NNE   6.44  22.5   NNE   15.1   15.4   14.7   13.1  1010.6  0.00   0.0     0     0.00      0     0.0  0.00   0.0   0.052   0.000   14.8    76   10.6   14.6    0.03   690    1    100.0   30 
28/02/24  21.30   15.4   16.0   15.4    71   10.2  11.3     N   5.63  22.5   NNE   15.0   15.1   14.7   12.9  1010.9  0.00   0.0     0     0.00      0     0.0  0.00   0.0   0.060   0.000   14.8    75   10.4   14.5    0.00   693    1    100.0   30 
28/02/24  22.00   15.3   15.6   15.3    73   10.5  14.5     N   7.24  24.1     N   13.9   15.0   13.7   12.1  1010.9  0.00   0.0     0     0.00      0     0.0  0.00   0.0   0.064   0.000   14.8    76   10.6   14.6    0.03   701    1    100.0   30 
28/02/24  22.30   15.3   15.4   15.2    74   10.7  14.5     N   7.24  29.0   NNW   13.9   15.0   13.7   12.2  1010.8  0.00   0.0     0     0.00      0     0.0  0.00   0.0   0.064   0.000   14.8    76   10.6   14.6    0.00   694    1    100.0   30 
28/02/24  23.00   15.6   15.8   15.3    69    9.9  14.5     N   7.24  25.7   NNE   14.3   15.2   13.9   12.4  1011.0  0.00   0.0     0     0.00      0     0.0  0.00   0.0   0.057   0.000   14.8    76   10.6   14.6    0.03   699    1    100.0   30 
28/02/24  23.30   15.8   15.8   15.4    67    9.7  11.3   NNE   5.63  22.5     N   15.4   15.3   14.9   13.2  1011.1  0.00   0.0     0     0.00      0     0.0  0.00   0.0   0.053   0.000   14.7    75   10.3   14.4    0.00   698    1    100.0   30 
29/02/24  00.00   16.2   16.3   15.7    65    9.6  11.3   NNE   5.63  22.5   NNE   15.9   15.8   15.5   13.8  1011.2  0.00   0.0     0     0.00      0     0.0  0.00   0.0   0.044   0.000   14.7    74   10.1   14.4    0.03   694    1    100.0   30 
29/02/24   0.30   15.4   16.2   15.3    70    9.9   4.8   NNE   2.41  17.7   NNE   15.4   15.1   15.1   13.3  1011.4  0.00   0.0     0     0.00      0     0.0  0.00   0.0   0.061   0.000   14.8    74   10.2   14.5    0.00   700    1    100.0   30 
29/02/24   1.00   15.0   15.4   15.0    71    9.8   0.0    NE   0.00   6.4    NE   15.0   14.6   14.6   12.9  1011.3  0.00   0.0     0     0.00      0     0.0  0.00   0.0   0.069   0.000   14.7    75   10.3   14.4    0.00   694    1    100.0   30 
29/02/24   1.30   13.9   15.1   13.9    77   10.0   1.6    NE   0.80   8.0   NNE   13.9   13.7   13.7   12.0  1011.2  0.00   0.0     0     0.00      0     0.0  0.00   0.0   0.091   0.000   14.7    75   10.3   14.4    0.00   696    1    100.0   30 
29/02/24   2.00   13.2   13.9   13.2    80    9.8   1.6   NNE   0.80   6.4     N   13.2   13.0   13.0   11.3  1010.9  0.00   0.0     0     0.00      0     0.0  0.00   0.0   0.108   0.000   14.7    75   10.3   14.4    0.00   696    1    100.0   30 
29/02/24   2.30   12.7   13.2   12.6    82    9.7   3.2   NNE   1.61   6.4    NE   12.7   12.6   12.6   10.8  1010.7  0.00   0.0     0     0.00      0     0.0  0.00   0.0   0.118   0.000   14.6    76   10.4   14.4    0.00   694    1    100.0   30 
29/02/24   3.00   12.5   12.7   12.4    83    9.7   3.2   NNE   1.61   6.4   NNE   12.5   12.4   12.4   10.7  1010.3  0.00   0.0     0     0.00      0     0.0  0.00   0.0   0.122   0.000   14.6    76   10.4   14.4    0.00   703    1    100.0   30 
29/02/24   3.30   13.1   13.1   12.4    82   10.1   1.6   NNE   0.80   4.8   NNE   13.1   12.9   12.9   11.2  1010.0  0.00   0.0     0     0.00      0     0.0  0.00   0.0   0.110   0.000   14.6    76   10.4   14.3    0.00   691    1    100.0   30 
29/02/24   4.00   13.4   13.4   13.1    81   10.2   1.6   NNE   0.80   8.0     N   13.4   13.3   13.3   11.6  1009.8  0.00   0.0     0     0.00      0     0.0  0.00   0.0   0.102   0.000   14.6    76   10.4   14.3    0.00   702    1    100.0   30 
29/02/24   4.30   14.4   14.5   13.4    77   10.5   6.4     N   3.22  14.5   NNE   14.4   14.2   14.2   12.5  1009.7  0.00   0.0     0     0.00      0     0.0  0.00   0.0   0.081   0.000   14.6    76   10.4   14.4    0.00   694    1    100.0   30 
29/02/24   5.00   15.2   15.2   14.3    76   11.0   9.7   NNE   4.83  19.3   NNE   14.9   15.0   14.7   13.1  1009.5  0.00   0.0     0     0.00      0     0.0  0.00   0.0   0.065   0.000   14.6    76   10.4   14.3    0.00   696    1    100.0   30 
29/02/24   5.30   15.2   15.2   15.0    73   10.4  11.3   NNE   5.63  27.4   NNE   14.7   14.8   14.3   12.6  1009.4  0.00   0.0     0     0.00      0     0.0  0.00   0.0   0.066   0.000   14.6    76   10.4   14.3    0.00   696    1    100.0   30 
29/02/24   6.00   15.5   15.5   15.1    70   10.0  12.9   NNE   6.44  22.5   NNE   14.7   15.2   14.3   12.7  1009.3  0.00   0.0     0     0.00      0     0.0  0.00   0.0   0.059   0.000   14.6    75   10.2   14.3    0.03   695    1    100.0   30 
29/02/24   6.30   14.9   15.5   14.9    73   10.1   9.7   NNE   4.83  19.3     N   14.6   14.6   14.2   12.5  1009.2  0.00   0.0     0     0.00      0     0.0  0.00   0.0   0.072   0.000   14.6    75   10.2   14.3    0.00   701    1    100.0   30 
29/02/24   7.00   14.8   15.0   14.5    74   10.2   8.0     N   4.02  16.1   NNW   14.7   14.6   14.4   12.7  1009.1  0.00   0.0     0     0.00      0     0.0  0.00   0.0   0.073   0.000   14.6    75   10.2   14.3    0.03   694    1    100.0   30 
29/02/24   7.30   14.9   15.1   14.8    74   10.3  11.3   NNE   5.63  22.5     N   14.4   14.7   14.1   12.6  1009.4  0.00   0.0    14     0.60     21     0.0  0.00   0.0   0.071   0.000   14.6    75   10.2   14.3    0.00   695    1    100.0   30 
29/02/24   8.00   15.2   15.2   14.9    73   10.4  11.3     N   5.63  22.5   NNE   14.7   14.9   14.4   13.3  1009.5  0.00   0.0    45     1.94     81     0.0  0.00   0.0   0.065   0.000   14.6    76   10.4   14.4    0.05   698    1    100.0   30 
29/02/24   8.30   15.7   15.8   15.2    70   10.3   9.7   NNE   4.83  17.7    NE   15.6   15.4   15.2   16.3  1009.7  0.00   0.0    90     3.87    111     0.0  0.00   0.0   0.054   0.000   14.7    75   10.3   14.4    0.00   693    1    100.0   30 
29/02/24   9.00   16.2   16.2   15.7    69   10.5  11.3     N   5.63  19.3     N   15.9   15.9   15.6   17.8  1009.6  0.00   0.0   148     6.36    209     0.0  0.00   0.0   0.044   0.000   14.7    75   10.3   14.4    0.10   698    1    100.0   30 
29/02/24   9.30   17.1   17.1   16.2    67   10.9   8.0   NNE   4.02  16.1     N   17.1   16.8   16.8   21.2  1009.6  0.00   0.0   289    12.43    394     0.0  0.00   0.0   0.027   0.000   14.8    75   10.4   14.5    0.00   698    1    100.0   30 
29/02/24  10.00   17.1   17.2   16.9    66   10.7   8.0   NNE   4.02  22.5    NE   17.1   16.8   16.8   20.6  1009.3  0.00   0.0   256    11.01    403     0.0  0.00   0.0   0.025   0.000   14.8    75   10.4   14.6    0.20   695    1    100.0   30 
29/02/24  10.30   17.2   17.3   17.1    64   10.3   9.7    NE   4.83  35.4   NNE   17.2   16.8   16.8   20.0  1009.2  0.00   0.0   230     9.89    281     0.0  0.00   0.0   0.023   0.000   14.9    75   10.5   14.6    0.00   695    1    100.0   30 
29/02/24  11.00   16.7   17.3   16.7    68   10.8   4.8     E   2.41  20.9     N   16.7   16.4   16.4   18.3  1009.6  0.00   0.0   165     7.10    278     0.0  0.00   0.0   0.034   0.000   14.9    75   10.5   14.6    0.15   698    1    100.0   30 
29/02/24  11.30   16.5   16.7   16.2    74   11.8   4.8     E   2.41  14.5     E   16.5   16.3   16.3   18.4  1009.9  0.00   0.0   171     7.35    225     0.0  0.00   0.0   0.038   0.000   14.9    75   10.5   14.6    0.00   694    1    100.0   30 
29/02/24  12.00   15.1   16.5   15.1    81   11.8   1.6     S   0.80  11.3   SSE   15.1   14.9   14.9   16.2  1010.1  0.00   0.0   127     5.46    193     0.0  0.00   0.0   0.068   0.000   14.9    76   10.7   14.7    0.10   697    1    100.0   30 
29/02/24  12.30   14.8   15.1   14.8    83   12.0   0.0   SSW   0.00   6.4   SSW   14.8   14.8   14.8   15.1  1010.0  0.00   0.0    75     3.23    107     0.0  0.00   0.0   0.073   0.000   14.8    76   10.6   14.6    0.00   699    1    100.0   30 
29/02/24  13.00   14.6   14.8   14.5    83   11.8   0.0   SSW   0.00   6.4   SSW   14.6   14.6   14.6   14.6  1009.6  0.00   0.0    61     2.62     79     0.0  0.00   0.0   0.078   0.000   14.8    76   10.6   14.6    0.05   693    1    100.0   30 
29/02/24  13.30   14.1   14.6   14.1    84   11.4   1.6   SSW   0.80   8.0   SSW   14.1   14.1   14.1   14.0  1009.3  0.25   0.0    52     2.24     63     0.0  0.00   0.0   0.088   0.000   14.8    77   10.8   14.6    0.00   699    1    100.0   30 
29/02/24  14.00   13.9   14.1   13.9    85   11.5   0.0   WNW   0.00   9.7     W   13.9   13.9   13.9   13.9  1009.4  0.76   2.0    53     2.28     77     0.0  0.00   0.0   0.091   0.000   14.8    76   10.6   14.6    0.03   695    1    100.0   30 
29/02/24  14.30   13.7   13.9   13.7    86   11.4   0.0     S   0.00   4.8    SW   13.7   13.7   13.7   13.1  1009.1  1.52   7.4    26     1.12     33     0.0  0.00   0.0   0.096   0.000   14.8    76   10.6   14.6    0.00   694    1    100.0   30 
29/02/24  15.00   13.7   13.8   13.6    86   11.4   0.0     S   0.00   3.2     S   13.7   13.7   13.7   14.7  1008.5  0.76   7.4    87     3.74    142     0.0  0.00   0.0   0.096   0.000   14.8    77   10.8   14.6    0.03   700    1    100.0   30 
29/02/24  15.30   13.4   13.8   13.4    87   11.3   1.6    SW   0.80   6.4   SSW   13.4   13.4   13.4   15.9  1008.2  0.00   0.0   155     6.67    183     0.0  0.00   0.0   0.102   0.000   14.8    77   10.8   14.6    0.00   693    1    100.0   30 
29/02/24  16.00   13.2   13.6   13.2    87   11.1   1.6   SSW   0.80   8.0    SW   13.2   13.2   13.2   13.8  1008.3  0.00   0.0    64     2.75    144     0.0  0.00   0.0   0.106   0.000   14.8    77   10.8   14.6    0.08   702    1    100.0   30 
29/02/24  16.30   13.1   13.3   13.0    87   11.0   1.6    SW   0.80   8.0    SW   13.1   13.1   13.1   12.0  1008.1  0.00   0.0    28     1.20     40     0.0  0.00   0.0   0.109   0.000   14.8    77   10.8   14.6    0.00   693    1    100.0   30 
29/02/24  17.00   13.1   13.1   12.9    87   10.9   1.6   SSW   0.80   9.7     S   13.1   13.1   13.1   11.7  1008.0  0.25   0.0    11     0.47     16     0.0  0.00   0.0   0.110   0.000   14.8    77   10.8   14.6    0.03   698    1    100.0   30 
© www.elbaexplorer.com